Main page
Satellite images 15-day forecastsClimateMarine weather Cyclones Lightning AirportsFAQ Newsletter About
Weather : Europe Africa North America South America Asia Australia-Oceania Others
Languages Contact

London, England

City airport

latitude: 51-30N, longitude: 000-03E, elevation: 5 m


METAR: EGLC 310620Z VRB03KT 9000 NSC 15/13 Q1017
TAF: EGLC 310613Z 3106/3115 19007KT 9999 FEW008 PROB40 TEMPO 3106/3115 6000

Time: 06:48 (06:48 UTC)

Current weather observation

The report was made 28 minutes ago, at 06:20 UTC
Wind 3 kt from variable directions
Temperature 15°C
Humidity 88%
Pressure 1017 hPa
Visibility: 9000 m

Change units

Forecast

The report was made 35 minutes ago, at 06:13 UTC
Forecast valid from 31 at 06 UTC to 31 at 15 UTC
Wind 7 kt from the South
Visibility 10 km or more
Few clouds at a height of 800 ft
Probability 40% :
Temporary
from 31 at 06 UTC to 31 at 15 UTC
Visibility: 6000 m
The information on this site is subject to a disclaimer
Weather : Europe Africa North America South America Asia Australia-Oceania Others
Satellite images 15-day forecastsClimateMarine weather Cyclones Lightning AirportsFAQ Languages Contact Newsletter About